Time;durP1;ratioP1;P1;durP2;ratioP2;P2;SDS_P1;SDS_P2;PMS_P1;PMS_P2;Temp;Humidity;BMP_temperature;BMP_pressure;BME280_temperature;BME280_humidity;BME280_pressure;Samples;Min_cycle;Max_cycle;Signal;HPM_P1;HPM_P2
2021/12/03 00:01:00;;;;;;;7.90;3.22;;;;;;;19.36;26.36;97400.38;5101472;28;20031;-95
2021/12/03 00:03:26;;;;;;;8.93;2.83;;;;;;;28.36;17.11;97415.22;5110703;28;20094;-96
2021/12/03 00:05:55;;;;;;;9.02;3.20;;;;;;;27.32;18.56;97419.41;5105172;28;20055;-96
2021/12/03 00:08:21;;;;;;;9.93;4.10;;;;;;;26.43;19.46;97413.72;5111702;28;20028;-96
2021/12/03 00:10:53;;;;;;;9.30;3.65;;;;;;;19.30;27.97;97411.34;5104314;28;20540;-96
2021/12/03 00:13:20;;;;;;;10.43;4.13;;;;;;;25.80;20.74;97387.56;5106257;28;20023;-96
2021/12/03 00:15:46;;;;;;;9.32;3.85;;;;;;;23.50;21.62;97377.50;5122680;28;20115;-96
2021/12/03 00:18:17;;;;;;;9.43;4.10;;;;;;;24.84;22.29;97365.13;5116368;28;20042;-96
2021/12/03 00:20:43;;;;;;;9.73;3.72;;;;;;;16.05;30.96;97374.34;5116825;28;20036;-95
2021/12/03 00:23:09;;;;;;;7.95;3.60;;;;;;;15.46;32.79;97369.47;5121642;28;20031;-96
2021/12/03 00:26:43;;;;;;;;;;;;;;;;;;;;;
2021/12/03 00:29:23;;;;;;;9.50;3.13;;;;;;;18.70;29.41;97328.91;5046625;26;20033;-96
2021/12/03 00:32:01;;;;;;;9.55;2.92;;;;;;;19.36;28.89;97323.72;5035047;28;20121;-95
2021/12/03 00:34:32;;;;;;;7.50;2.45;;;;;;;17.96;30.67;97307.22;5050531;28;20061;-96
2021/12/03 00:37:04;;;;;;;8.10;2.55;;;;;;;17.12;32.21;97290.28;5023406;28;20872;-95
2021/12/03 00:39:30;;;;;;;8.38;2.78;;;;;;;14.40;35.76;97288.06;5023127;28;20022;-96
2021/12/03 00:42:00;;;;;;;6.97;2.40;;;;;;;16.24;33.76;97268.94;5028936;28;20025;-96
2021/12/03 00:44:34;;;;;;;6.97;2.40;;;;;;;16.01;35.51;97265.81;5043180;28;20022;-96
2021/12/03 00:47:03;;;;;;;6.53;2.25;;;;;;;15.57;35.13;97249.81;5025934;28;20040;-96
2021/12/03 00:49:40;;;;;;;6.22;1.92;;;;;;;17.29;31.34;97243.66;5030097;28;20006;-96
2021/12/03 00:52:07;;;;;;;6.53;1.90;;;;;;;12.68;40.47;97251.16;4991231;28;20041;-96
2021/12/03 00:54:35;;;;;;;6.78;2.20;;;;;;;16.16;34.55;97234.38;5021283;28;20341;-95
2021/12/03 00:57:04;;;;;;;6.85;2.45;;;;;;;14.78;35.98;97233.72;5021587;28;20124;-96
2021/12/03 00:59:29;;;;;;;7.15;2.60;;;;;;;14.33;35.91;97200.94;5019564;28;20018;-96
2021/12/03 01:01:55;;;;;;;8.55;2.53;;;;;;;16.24;34.43;97202.34;5018654;28;20074;-95
2021/12/03 01:04:36;;;;;;;7.55;2.47;;;;;;;15.42;35.84;97201.56;5010007;28;20014;-96
2021/12/03 01:07:02;;;;;;;6.90;2.35;;;;;;;19.19;30.65;97194.50;5031099;28;20049;-95
2021/12/03 01:09:36;;;;;;;6.80;2.33;;;;;;;16.26;33.55;97189.97;5013663;28;20722;-96
2021/12/03 01:12:07;;;;;;;7.07;2.25;;;;;;;15.87;33.52;97202.66;5023195;28;20061;-96
2021/12/03 01:14:33;;;;;;;6.00;1.98;;;;;;;18.13;30.74;97192.69;5012131;28;20052;-96
2021/12/03 01:16:59;;;;;;;6.00;1.83;;;;;;;17.00;32.92;97196.19;5012413;28;20041;-96
2021/12/03 01:19:25;;;;;;;5.60;2.00;;;;;;;13.70;37.13;97185.66;5005863;28;20032;-95
2021/12/03 01:21:50;;;;;;;5.60;1.60;;;;;;;14.44;39.42;97169.78;5026842;23;20066;-96
2021/12/03 01:24:16;;;;;;;6.40;2.10;;;;;;;16.40;34.74;97171.59;5036175;28;20038;-96
2021/12/03 01:26:43;;;;;;;5.40;1.73;;;;;;;11.89;42.20;97173.28;5019356;28;20033;-96
2021/12/03 01:29:09;;;;;;;6.05;1.77;;;;;;;15.39;35.91;97171.03;5022268;28;20033;-96
2021/12/03 01:31:35;;;;;;;5.35;1.73;;;;;;;15.02;53.73;97162.53;5020482;28;20030;-96
2021/12/03 01:34:01;;;;;;;6.10;2.10;;;;;;;17.72;32.37;97149.56;5019401;28;20184;-96
2021/12/03 01:36:28;;;;;;;6.85;2.13;;;;;;;16.65;34.46;97146.47;5017524;28;20038;-95
2021/12/03 01:38:54;;;;;;;6.38;1.92;;;;;;;16.64;33.45;97148.25;5020861;28;20034;-96
2021/12/03 01:41:19;;;;;;;5.35;1.80;;;;;;;15.90;35.37;97135.91;5019631;28;20109;-96
2021/12/03 01:43:44;;;;;;;6.60;1.77;;;;;;;20.01;28.62;97135.84;5014009;28;20475;-96
2021/12/03 01:46:21;;;;;;;5.53;1.67;;;;;;;16.95;33.48;97119.25;5017220;28;20029;-96
2021/12/03 01:48:47;;;;;;;5.15;1.45;;;;;;;24.41;22.98;97117.56;5018834;28;20005;-96
2021/12/03 01:51:20;;;;;;;5.30;1.55;;;;;;;29.07;17.01;97117.91;5019590;28;20406;-96
2021/12/03 01:53:52;;;;;;;4.78;1.30;;;;;;;30.54;18.51;97094.03;5021148;28;20041;-96
2021/12/03 01:56:20;;;;;;;5.85;1.58;;;;;;;28.24;17.48;97092.97;5028429;28;20513;-96
2021/12/03 01:58:51;;;;;;;5.20;1.35;;;;;;;26.50;18.99;97101.16;5029413;28;20028;-96
2021/12/03 02:01:24;;;;;;;4.95;1.40;;;;;;;22.78;23.63;97091.06;5025108;28;20029;-96
2021/12/03 02:04:00;;;;;;;4.95;1.40;;;;;;;30.66;16.71;97093.56;5024285;28;20026;-96
2021/12/03 02:06:27;;;;;;;5.50;1.40;;;;;;;27.21;18.92;97107.34;5019394;28;20122;-96
2021/12/03 02:08:54;;;;;;;4.43;1.40;;;;;;;26.71;20.43;97096.34;5052531;23;20039;-96
2021/12/03 02:11:21;;;;;;;4.97;1.27;;;;;;;23.89;22.29;97102.72;4986346;28;20084;-96
2021/12/03 02:13:48;;;;;;;4.03;1.10;;;;;;;26.72;19.85;97095.38;4982583;28;20030;-96
2021/12/03 02:16:19;;;;;;;4.18;1.13;;;;;;;27.23;19.57;97091.97;4986874;28;20034;-96
2021/12/03 02:18:50;;;;;;;3.88;1.10;;;;;;;20.63;26.10;97106.47;4983930;28;20041;-96
2021/12/03 02:21:16;;;;;;;3.75;1.00;;;;;;;19.72;27.26;97078.81;5015403;28;20034;-96
2021/12/03 02:23:46;;;;;;;6.68;1.15;;;;;;;20.29;27.77;97071.13;4993238;28;20050;-96
2021/12/03 02:26:13;;;;;;;4.65;1.20;;;;;;;22.28;24.36;97051.84;4992401;28;20077;-96
2021/12/03 02:28:46;;;;;;;4.35;1.17;;;;;;;15.70;33.72;97067.72;4994049;28;20061;-96
2021/12/03 02:36:23;;;;;;;3.22;1.00;;;;;;;12.62;41.36;97047.41;1764161;23;20101;-96
2021/12/03 02:38:49;;;;;;;4.82;1.00;;;;;;;12.64;43.38;97042.97;4968405;28;20116;-96
2021/12/03 02:41:15;;;;;;;4.53;1.15;;;;;;;10.15;45.83;97047.53;4966691;28;20118;-95
2021/12/03 02:43:41;;;;;;;3.38;1.10;;;;;;;18.89;39.64;97016.06;4969115;28;20038;-96
2021/12/03 02:46:07;;;;;;;4.22;1.20;;;;;;;12.05;44.21;97031.59;4969457;28;20032;-96
2021/12/03 02:48:35;;;;;;;3.63;1.08;;;;;;;11.39;45.26;97042.97;4965815;28;20045;-96
2021/12/03 02:51:01;;;;;;;4.63;1.10;;;;;;;19.88;35.86;97022.16;4966066;28;20131;-96
2021/12/03 02:53:26;;;;;;;3.88;0.90;;;;;;;15.29;36.06;97042.00;4968014;28;20086;-96
2021/12/03 02:55:52;;;;;;;4.00;0.88;;;;;;;16.53;34.43;97017.31;4979024;28;20032;-96
2021/12/03 02:58:19;;;;;;;4.03;1.13;;;;;;;25.30;21.57;97009.69;4963173;28;20113;-96
2021/12/03 03:00:46;;;;;;;4.32;0.88;;;;;;;18.73;28.68;96990.72;4960766;28;20514;-96
2021/12/03 03:03:12;;;;;;;3.85;1.10;;;;;;;18.92;29.85;96970.94;4964965;28;20034;-96
2021/12/03 03:05:37;;;;;;;3.92;1.00;;;;;;;23.34;24.83;96948.84;4960613;28;20446;-96
2021/12/03 03:08:03;;;;;;;4.72;1.00;;;;;;;20.99;27.90;96928.88;4963746;28;20041;-96
2021/12/03 03:10:31;;;;;;;3.35;0.88;;;;;;;17.77;31.63;96932.22;4974811;28;20026;-96
2021/12/03 03:12:58;;;;;;;2.72;0.73;;;;;;;19.99;28.63;96913.72;4959587;28;20054;-96
2021/12/03 03:15:24;;;;;;;2.92;0.85;;;;;;;30.33;16.05;96902.88;4978908;28;20077;-96
2021/12/03 03:17:50;;;;;;;4.90;1.15;;;;;;;21.27;26.52;96897.47;4966165;28;20181;-95
2021/12/03 03:20:17;;;;;;;3.35;0.90;;;;;;;23.74;22.54;96907.91;4966510;28;20097;-96
2021/12/03 03:22:43;;;;;;;2.40;0.68;;;;;;;24.58;23.13;96895.66;4979064;28;20038;-96
2021/12/03 03:25:12;;;;;;;2.95;0.80;;;;;;;26.60;20.78;96896.06;4967028;28;20120;-96
2021/12/03 03:27:39;;;;;;;3.25;0.90;;;;;;;24.83;21.63;96877.28;4964553;28;20065;-96
2021/12/03 03:30:08;;;;;;;2.30;0.75;;;;;;;21.97;25.82;96887.22;4962921;28;20041;-96
2021/12/03 03:32:34;;;;;;;2.63;0.77;;;;;;;14.20;38.16;96909.69;4961480;28;20602;-96
2021/12/03 03:35:00;;;;;;;3.08;0.82;;;;;;;14.32;40.49;96895.06;4963073;28;20043;-96
2021/12/03 03:37:26;;;;;;;2.60;0.80;;;;;;;11.34;45.13;96899.59;4968789;28;20053;-96
2021/12/03 03:39:52;;;;;;;2.55;0.90;;;;;;;10.95;51.09;96889.91;4970628;28;20402;-96
2021/12/03 03:42:18;;;;;;;3.80;0.88;;;;;;;14.10;43.10;96888.38;4973082;28;20029;-96
2021/12/03 03:44:44;;;;;;;4.07;1.10;;;;;;;12.24;45.59;96893.13;4987597;28;20037;-96
2021/12/03 03:47:11;;;;;;;3.08;0.85;;;;;;;9.80;52.36;96897.72;4977441;28;20034;-96
2021/12/03 03:49:37;;;;;;;4.70;1.27;;;;;;;10.80;49.52;96895.75;4975279;28;20041;-96
2021/12/03 03:52:05;;;;;;;3.85;1.02;;;;;;;11.49;55.92;96881.59;4992336;28;20034;-96
2021/12/03 03:54:34;;;;;;;3.58;0.90;;;;;;;24.06;23.69;96866.00;4980270;28;20026;-96
2021/12/03 03:57:03;;;;;;;3.00;1.00;;;;;;;17.75;32.51;96859.34;4977039;28;20085;-96
2021/12/03 03:59:28;;;;;;;3.63;1.00;;;;;;;22.46;25.22;96848.47;4980396;28;20022;-96
2021/12/03 04:02:28;;;;;;;3.75;1.00;;;;;;;19.79;29.54;96867.59;4996373;28;20023;-96
2021/12/03 04:04:54;;;;;;;4.05;0.95;;;;;;;21.66;27.34;96855.34;4991933;28;20030;-96
2021/12/03 04:07:22;;;;;;;5.30;1.38;;;;;;;21.41;27.16;96865.31;4980364;28;20026;-96
2021/12/03 04:09:50;;;;;;;3.95;1.08;;;;;;;19.01;30.23;96871.69;4976119;28;20742;-96
2021/12/03 04:12:17;;;;;;;4.90;1.33;;;;;;;22.38;26.23;96850.09;4980363;28;20042;-96
2021/12/03 04:14:45;;;;;;;4.95;1.50;;;;;;;22.04;25.94;96829.97;4985836;28;20466;-96
2021/12/03 04:17:13;;;;;;;5.00;1.42;;;;;;;23.62;24.54;96835.41;4989254;28;20094;-96
2021/12/03 04:19:40;;;;;;;4.93;1.65;;;;;;;24.07;23.58;96841.88;4979649;28;20057;-96
2021/12/03 04:22:06;;;;;;;6.28;1.70;;;;;;;19.45;28.83;96836.63;4978480;28;20038;-96
2021/12/03 04:24:36;;;;;;;6.45;1.80;;;;;;;18.87;30.48;96833.03;4992739;28;20030;-96
2021/12/03 04:27:07;;;;;;;5.45;1.73;;;;;;;23.62;23.94;96838.06;4992626;28;20054;-96
2021/12/03 04:29:33;;;;;;;5.78;1.60;;;;;;;29.76;17.37;96837.94;4983793;28;20098;-96
2021/12/03 04:32:00;;;;;;;4.63;1.42;;;;;;;27.93;18.67;96822.97;4987187;28;20120;-96
2021/12/03 04:34:36;;;;;;;5.38;1.73;;;;;;;27.23;20.90;96813.66;4993009;28;20058;-96
2021/12/03 04:37:03;;;;;;;5.10;1.30;;;;;;;35.75;12.93;96801.97;4987984;28;20039;-96
2021/12/03 04:39:32;;;;;;;5.45;1.70;;;;;;;33.42;15.24;96801.84;4999413;28;20065;-96
2021/12/03 04:41:58;;;;;;;5.45;1.50;;;;;;;34.75;13.18;96773.69;4998136;28;20031;-96
2021/12/03 04:44:37;;;;;;;4.93;1.40;;;;;;;41.51;10.03;96776.56;5001478;28;20022;-96
2021/12/03 04:47:10;;;;;;;5.88;1.60;;;;;;;17.31;28.36;96728.00;4988274;28;20043;-96
2021/12/03 04:49:38;;;;;;;5.43;1.70;;;;;;;6.68;52.96;96760.09;4997192;28;20069;-96
2021/12/03 04:52:06;;;;;;;5.03;1.63;;;;;;;6.45;75.19;96764.09;4993942;28;20029;-96
2021/12/03 04:55:11;;;;;;;5.75;1.73;;;;;;;1.62;82.87;96767.03;4993810;28;20035;-96
2021/12/03 04:57:38;;;;;;;5.43;1.58;;;;;;;4.94;71.49;96747.50;4999373;28;20054;-96
2021/12/03 05:00:08;;;;;;;6.53;1.83;;;;;;;3.47;87.85;96751.59;4985092;28;20034;-96
2021/12/03 05:02:37;;;;;;;6.22;1.92;;;;;;;16.48;43.10;96729.13;5003363;28;20030;-96
2021/12/03 05:05:05;;;;;;;5.97;1.83;;;;;;;10.51;71.56;96733.56;4989443;23;20182;-96
2021/12/03 05:10:07;;;;;;;6.25;1.83;;;;;;;13.75;54.60;96709.44;4976497;28;20027;-96
2021/12/03 05:13:15;;;;;;;5.78;1.75;;;;;;;12.43;49.14;96723.22;4977708;28;20011;-96
2021/12/03 05:15:43;;;;;;;7.63;2.20;;;;;;;12.29;48.75;96700.38;4960031;28;20094;-96
2021/12/03 05:18:36;;;;;;;6.03;1.92;;;;;;;10.82;52.77;96708.81;4993224;28;20015;-96
2021/12/03 05:21:11;;;;;;;7.73;2.17;;;;;;;10.76;53.31;96684.69;4956532;28;20047;-96
2021/12/03 05:23:56;;;;;;;5.47;1.73;;;;;;;6.73;65.20;96693.44;4972851;28;20034;-96
2021/12/03 05:26:31;;;;;;;6.30;2.00;;;;;;;9.15;68.22;96699.72;4972960;28;20481;-95
2021/12/03 05:28:58;;;;;;;5.75;1.70;;;;;;;10.63;58.02;96693.91;4965705;28;20019;-96
2021/12/03 05:31:35;;;;;;;6.50;2.03;;;;;;;10.28;62.07;96688.41;4989382;28;20045;-96
2021/12/03 05:34:10;;;;;;;;;;;;;;;10.52;56.66;96691.78;4967346;28;20042;-96
2021/12/03 05:36:56;;;;;;;5.28;1.50;;;;;;;9.96;64.54;96698.38;4988667;28;19925;-96
2021/12/03 05:39:25;;;;;;;6.85;2.20;;;;;;;6.49;70.66;96700.97;4974228;28;20395;-96
2021/12/03 05:41:51;;;;;;;6.97;2.08;;;;;;;6.45;73.90;96704.53;4992207;28;20087;-96
2021/12/03 05:44:30;;;;;;;6.88;2.20;;;;;;;6.28;75.94;96709.28;4969612;28;20042;-96
2021/12/03 05:47:11;;;;;;;6.18;2.10;;;;;;;6.35;77.69;96705.66;4981777;28;20035;-96
2021/12/03 05:49:41;;;;;;;7.25;2.65;;;;;;;5.92;77.42;96715.28;4974681;28;20062;-96
2021/12/03 05:52:29;;;;;;;6.88;2.40;;;;;;;6.64;79.35;96704.91;4973578;28;20035;-96
2021/12/03 05:54:57;;;;;;;7.38;2.33;;;;;;;6.53;77.30;96699.16;4959456;28;20065;-96
2021/12/03 05:57:39;;;;;;;8.00;2.67;;;;;;;6.51;77.25;96692.31;4970528;28;20047;-96
2021/12/03 06:00:35;;;;;;;7.53;2.70;;;;;;;6.55;77.53;96699.13;4972730;28;20010;-96
2021/12/03 06:03:32;;;;;;;8.52;2.85;;;;;;;5.77;73.77;96700.97;4970528;28;20051;-96
2021/12/03 06:06:02;;;;;;;7.88;3.10;;;;;;;4.78;83.55;96697.88;4971670;28;20041;-96
2021/12/03 06:18:18;;;;;;;9.10;2.88;;;;;;;6.71;77.08;96707.31;2985609;23;20047;-96
2021/12/03 06:20:53;;;;;;;12.80;4.85;;;;;;;6.95;77.98;96713.59;4968752;28;20035;-96
2021/12/03 06:48:26;;;;;;;96.93;14.13;;;;;;;8.08;77.28;96721.47;1437794;27;20695;-95
2021/12/03 06:50:52;;;;;;;29.58;9.00;;;;;;;8.13;77.25;96714.41;4817660;29;20042;-96
2021/12/03 06:53:43;;;;;;;36.45;11.18;;;;;;;8.48;75.78;96709.81;4830521;29;20067;-96
2021/12/03 06:56:20;;;;;;;87.72;15.20;;;;;;;8.62;77.38;96713.72;4813875;29;20029;-94
2021/12/03 06:58:48;;;;;;;153.68;19.02;;;;;;;8.58;76.57;96731.16;4821650;29;20026;-96
2021/12/03 07:01:15;;;;;;;66.15;14.00;;;;;;;8.36;78.32;96720.59;4816941;29;20085;-96
2021/12/03 07:06:53;;;;;;;103.32;21.63;;;;;;;10.05;69.41;96713.63;4777211;29;20138;-95
2021/12/03 07:09:21;;;;;;;78.53;17.42;;;;;;;10.12;70.72;96709.03;4782686;29;20118;-96
2021/12/03 07:11:46;;;;;;;37.30;13.75;;;;;;;9.43;71.32;96701.31;4781014;29;20059;-96
2021/12/03 07:35:44;;;;;;;12.77;2.80;;;;;;;9.83;75.26;96752.69;2750898;27;20049;-96
2021/12/03 07:38:22;;;;;;;;;;;;;;;;;;;;;
2021/12/03 07:41:04;;;;;;;10.82;2.75;;;;;;;9.95;76.14;96745.28;4870503;29;20124;-95
2021/12/03 07:43:38;;;;;;;7.75;2.50;;;;;;;9.90;75.80;96741.13;4876315;29;20030;-96
2021/12/03 07:46:04;;;;;;;32.67;3.97;;;;;;;10.24;74.35;96750.22;4874162;29;20041;-96
2021/12/03 07:48:30;;;;;;;33.92;3.95;;;;;;;10.10;74.77;96747.28;4875367;29;20034;-96
2021/12/03 07:51:08;;;;;;;11.93;3.10;;;;;;;10.12;74.16;96758.53;4872438;29;20044;-96
2021/12/03 07:53:46;;;;;;;11.32;3.70;;;;;;;10.12;75.73;96760.25;4871869;29;20055;-96
2021/12/03 08:06:53;;;;;;;12.25;3.30;;;;;;;10.46;74.92;96772.00;4887864;29;20124;-96
2021/12/03 08:20:38;;;;;;;46.22;6.25;;;;;;;11.02;71.35;96780.97;4893808;29;20069;-96
2021/12/03 08:34:41;;;;;;;43.22;4.57;;;;;;;10.54;74.06;96781.19;5128128;23;20072;-96
2021/12/03 08:37:23;;;;;;;54.13;6.15;;;;;;;10.92;71.29;96755.28;4908394;29;20405;-96
2021/12/03 08:43:13;;;;;;;12.93;2.60;;;;;;;10.33;72.77;96758.59;4926705;29;20046;-96
2021/12/03 08:45:52;;;;;;;;;;;;;;;;;;;;;
2021/12/03 08:49:04;;;;;;;;;;;;;;;;;;;;;
2021/12/03 08:51:45;;;;;;;15.23;2.60;;;;;;;13.09;59.15;96759.13;4935176;23;20079;-96
2021/12/03 08:57:15;;;;;;;17.98;2.85;;;;;;;13.21;58.71;96749.78;4788558;29;20035;-96
2021/12/03 09:07:48;;;;;;;17.92;2.42;;;;;;;10.30;68.18;96772.56;4756022;30;20085;-96
2021/12/03 09:21:17;;;;;;;12.35;2.60;;;;;;;13.94;53.65;96766.94;4754727;30;20040;-96
2021/12/03 09:29:23;;;;;;;11.13;1.67;;;;;;;14.75;51.29;96781.69;4242835;27;20083;-96
2021/12/03 09:31:50;;;;;;;10.82;2.15;;;;;;;13.71;51.97;96773.41;4873861;29;20469;-96
2021/12/03 09:34:18;;;;;;;13.55;1.90;;;;;;;11.04;59.22;96798.25;4876769;29;20037;-97
2021/12/03 09:36:44;;;;;;;11.27;1.70;;;;;;;12.59;57.04;96783.44;4872679;29;20044;-96
2021/12/03 09:39:23;;;;;;;13.10;1.75;;;;;;;12.13;56.74;96770.81;4876466;29;20054;-96
2021/12/03 09:41:51;;;;;;;13.60;2.15;;;;;;;10.70;62.40;96764.91;4882583;29;20068;-96
2021/12/03 09:44:17;;;;;;;12.07;1.67;;;;;;;13.55;53.02;96734.94;4874495;29;20028;-96
2021/12/03 09:46:45;;;;;;;11.20;1.83;;;;;;;11.66;53.19;96727.66;4889701;29;20147;-96
2021/12/03 09:49:33;;;;;;;11.43;2.58;;;;;;;10.04;63.65;96752.75;4896900;29;20032;-96
2021/12/03 09:52:21;;;;;;;8.88;1.80;;;;;;;10.34;63.23;96753.34;4880638;29;20067;-95
2021/12/03 09:54:56;;;;;;;6.75;1.20;;;;;;;11.20;62.49;96735.84;4885729;29;20045;-96
2021/12/03 10:00:30;;;;;;;8.63;1.95;;;;;;;12.79;54.11;96754.53;4863789;29;20044;-96
2021/12/03 10:13:32;;;;;;;120.20;47.60;;;;;;;12.08;56.28;96716.16;4899298;29;20043;-96
2021/12/03 10:16:22;;;;;;;;;;;;;;;;;;;;;
2021/12/03 10:19:26;;;;;;;53.65;20.35;;;;;;;12.95;55.40;96731.03;4899176;29;20128;-96
2021/12/03 11:01:13;;;;;;;9.23;1.98;;;;;;;12.20;59.21;96756.53;4851225;29;20139;-96
2021/12/03 11:37:42;;;;;;;15.77;3.40;;;;;;;12.35;61.78;96735.81;4911951;29;20109;-96
2021/12/03 11:44:07;;;;;;;14.82;3.05;;;;;;;12.87;60.09;96693.94;4922388;29;20091;-96
2021/12/03 11:46:57;;;;;;;16.45;2.85;;;;;;;13.59;57.92;96714.69;4917901;29;20051;-96
2021/12/03 11:50:24;;;;;;;18.23;3.22;;;;;;;13.36;58.02;96701.06;4918960;29;20091;-96
2021/12/03 12:32:37;;;;;;;12.23;2.50;;;;;;;14.79;54.13;96728.09;4910968;29;20465;-96
2021/12/03 13:10:29;;;;;;;16.05;2.10;;;;;;;14.63;53.01;96729.00;4856296;29;20047;-96
2021/12/03 14:18:51;;;;;;;13.10;1.95;;;;;;;14.77;49.81;96625.03;4891575;29;20024;-96
2021/12/03 14:56:14;;;;;;;10.30;2.30;;;;;;;13.88;52.22;96610.91;4879437;29;20060;-96
2021/12/03 15:08:53;;;;;;;12.05;2.10;;;;;;;14.32;51.16;96604.00;4880056;29;20486;-96
2021/12/03 15:24:36;;;;;;;13.10;1.83;;;;;;;14.00;50.86;96598.84;4872107;29;20036;-96
2021/12/03 15:27:24;;;;;;;14.25;2.30;;;;;;;14.00;51.71;96606.72;4870952;29;20040;-95
2021/12/03 15:35:15;;;;;;;12.90;2.17;;;;;;;14.88;49.40;96611.22;4881563;29;20510;-96
2021/12/03 15:40:29;;;;;;;19.15;2.35;;;;;;;16.26;45.67;96635.81;4889521;29;20054;-96
2021/12/03 15:57:02;;;;;;;13.43;2.05;;;;;;;15.96;45.21;96615.84;4854280;29;20094;-96
2021/12/03 16:05:34;;;;;;;19.50;2.30;;;;;;;16.57;45.06;96620.59;4863166;29;20057;-96
2021/12/03 16:08:29;;;;;;;13.88;2.00;;;;;;;16.38;45.62;96613.97;4868585;29;20041;-96
2021/12/03 16:11:14;;;;;;;14.40;2.20;;;;;;;16.25;45.72;96604.38;4859788;29;20041;-96
2021/12/03 16:16:45;;;;;;;12.70;2.28;;;;;;;17.80;40.56;96603.28;4873732;29;20037;-96
2021/12/03 16:51:50;;;;;;;13.25;2.40;;;;;;;18.00;40.71;96611.56;4893339;29;20047;-96
2021/12/03 16:54:25;;;;;;;12.68;2.38;;;;;;;17.82;40.63;96614.53;4888702;29;20029;-96
2021/12/03 16:56:51;;;;;;;9.85;1.92;;;;;;;18.11;40.10;96616.03;4887400;29;20037;-96
2021/12/03 16:59:18;;;;;;;12.80;2.83;;;;;;;17.26;41.97;96619.44;4902440;29;20033;-96
2021/12/03 17:01:54;;;;;;;12.35;2.28;;;;;;;16.99;41.89;96620.44;4888491;29;20033;-96
2021/12/03 23:12:49;;;;;;;26.30;7.13;;;;;;;14.18;48.46;96290.25;3243967;27;19928;-96
2021/12/03 23:15:16;;;;;;;21.45;7.68;;;;;;;14.56;47.85;96289.59;4825313;29;20057;-96
2021/12/03 23:17:42;;;;;;;21.88;6.72;;;;;;;14.26;48.20;96274.88;4839036;29;20318;-96
2021/12/03 23:20:08;;;;;;;18.35;6.80;;;;;;;14.45;48.43;96265.84;4819834;29;20064;-96
2021/12/03 23:22:37;;;;;;;22.73;7.07;;;;;;;15.64;45.44;96265.81;4827063;29;20070;-96
2021/12/03 23:25:04;;;;;;;19.23;6.82;;;;;;;13.75;51.36;96259.75;4815362;29;20493;-96
2021/12/03 23:27:30;;;;;;;19.17;5.97;;;;;;;13.17;53.32;96266.72;4818605;29;20511;-96
2021/12/03 23:30:00;;;;;;;19.45;6.68;;;;;;;14.62;48.28;96263.00;4818281;29;20394;-96
2021/12/03 23:32:27;;;;;;;18.02;5.60;;;;;;;13.89;49.07;96265.88;4820424;29;20042;-96
2021/12/03 23:34:56;;;;;;;21.15;6.03;;;;;;;13.97;47.55;96263.63;4817668;29;20026;-96
2021/12/03 23:37:22;;;;;;;18.70;5.68;;;;;;;13.12;51.07;96266.13;4829888;29;20208;-96
2021/12/03 23:39:49;;;;;;;19.70;5.25;;;;;;;14.21;50.21;96258.63;4827812;29;20061;-96
2021/12/03 23:42:14;;;;;;;18.83;5.07;;;;;;;14.58;49.82;96264.09;4822671;29;20057;-96
2021/12/03 23:44:41;;;;;;;22.27;5.20;;;;;;;16.08;45.66;96242.66;4828721;29;20062;-96
